1898 Tropical Storm NOT_NAMED (1898255N13281)


IBTrACS version v04r00. Visit IBTrACS website for data access.
Please direct all questions to the IBTrACS Q and A forum

Storm track - Intensity - Wind Radii - Intensity Data - Source Data - All data

Summary Information

Storm ID 1898255N13281
Start Sep 12 06Z
Landfall Sep 16 18Z, Sep 20 09Z
Max Intensity 50 kt (Sep 12 09Z)
End Sep 23 12Z
ATCF IDs ,AL051898
Track status Best track data.

Storm track plot

Map of storm track

Intensity plots

Map of storm track

Radial wind information

No radial wind information for this storm


Position and Intensity Table

BASIN ISO_TIME_________ NATURE LAT LON WMO WIND USA WIND MLC WIND MLC PRES
degrees north degrees east kts kts kts mb
NA 1898-09-12 06:00:00 TS 12.90 -79.10 50 50
NA 09:00:00 TS 13.05 -79.32 50
NA 12:00:00 TS 13.20 -79.50 50 50
NA 15:00:00 TS 13.35 -79.62 50
NA 18:00:00 TS 13.50 -79.70 50 50
NA 21:00:00 TS 13.65 -79.79 50
NA 1898-09-13 00:00:00 TS 13.80 -79.90 50 50
NA 03:00:00 TS 13.95 -80.05 50
NA 06:00:00 TS 14.10 -80.20 50 50
NA 09:00:00 TS 14.25 -80.30 50
NA 12:00:00 TS 14.40 -80.40 50 50
NA 15:00:00 TS 14.56 -80.55 50
NA 18:00:00 TS 14.70 -80.70 50 50
NA 21:00:00 TS 14.80 -80.80 50
NA 1898-09-14 00:00:00 TS 14.90 -80.90 50 50
NA 03:00:00 TS 15.05 -81.04 50
NA 06:00:00 TS 15.20 -81.20 50 50
NA 09:00:00 TS 15.31 -81.35 50
NA 12:00:00 TS 15.40 -81.50 50 50
NA 15:00:00 TS 15.49 -81.65 50
NA 18:00:00 TS 15.60 -81.80 50 50
NA 21:00:00 TS 15.75 -81.94 50
NA 1898-09-15 00:00:00 TS 15.90 -82.10 50 50
NA 03:00:00 TS 16.01 -82.28 50
NA 06:00:00 TS 16.10 -82.50 50 50
NA 09:00:00 TS 16.19 -82.76 50
NA 12:00:00 TS 16.30 -83.10 50 50
NA 15:00:00 TS 16.44 -83.51 50
NA 18:00:00 TS 16.60 -84.00 50 50
NA 21:00:00 TS 16.75 -84.53 50
NA 1898-09-16 00:00:00 TS 16.90 -85.10 50 50
NA 03:00:00 TS 17.04 -85.69 50
NA 06:00:00 TS 17.20 -86.30 50 50
NA 09:00:00 TS 17.39 -86.90 50
NA 12:00:00 TS 17.60 -87.50 50 50
NA 15:00:00 TS 17.79 -88.09 45
NA 18:00:00 TS 18.00 -88.70 40 40
NA 21:00:00 TS 18.23 -89.34 37
NA 1898-09-17 00:00:00 TS 18.50 -90.00 35 35
NA 03:00:00 TS 18.78 -90.67 37
NA 06:00:00 TS 19.10 -91.30 40 40
NA 09:00:00 TS 19.48 -91.89 40
NA 12:00:00 TS 19.90 -92.40 40 40
NA 15:00:00 TS 20.34 -92.85 42
NA 18:00:00 TS 20.80 -93.20 45 45
NA 21:00:00 TS 21.26 -93.45 45
NA 1898-09-18 00:00:00 TS 21.70 -93.60 45 45
NA 03:00:00 TS 22.10 -93.72 47
NA 06:00:00 TS 22.50 -93.80 50 50
NA 09:00:00 TS 22.94 -93.87 50
NA 12:00:00 TS 23.40 -93.90 50 50
NA 15:00:00 TS 23.85 -93.91 50
NA 18:00:00 TS 24.30 -93.90 50 50
NA 21:00:00 TS 24.76 -93.91 50
NA 1898-09-19 00:00:00 TS 25.20 -93.92 50 50 35
NA 03:00:00 TS 25.63 -93.91 50 37
NA 06:00:00 TS 26.08 -93.88 50 50 40
NA 09:00:00 TS 26.58 -93.87 50 42
NA 12:00:00 TS 27.07 -93.83 50 50 45
NA 15:00:00 TS 27.53 -93.76 50 45
NA 18:00:00 TS 27.97 -93.67 50 50 45
NA 21:00:00 TS 28.37 -93.57 50 45
NA 1898-09-20 00:00:00 TS 28.77 -93.47 50 50 45
NA 03:00:00 TS 29.19 -93.33 50 42
NA 06:00:00 TS 29.60 -93.20 50 50 40
NA 09:00:00 TS 29.92 -93.07 50 37
NA 11:00:00 TS 30.21 -93.01 50 50 35
NA 12:00:00 TS 30.40 -93.00 45 45 35
NA 15:00:00 TS 30.86 -92.89 42 32
NA 18:00:00 TS 31.23 -92.73 40 40 30
NA 21:00:00 TS 31.67 -92.62 37 30
NA 1898-09-21 00:00:00 TS 32.10 -92.53 35 35 30
NA 03:00:00 TS 32.52 -92.45 35 30
NA 06:00:00 TS 32.93 -92.40 35 35 30
NA 09:00:00 TS 33.33 -92.45 32 30
NA 12:00:00 TS 33.77 -92.47 30 30 30
NA 15:00:00 TS 34.29 -92.34 30 30
NA 18:00:00 MX 34.93 -92.13 30 30 30
NA 21:00:00 MX 35.69 -91.95 30 30
NA 1898-09-22 00:00:00 MX 36.53 -91.73 30 30 30
NA 03:00:00 MX 37.43 -91.48 27 27
NA 06:00:00 MX 38.40 -91.34 25 25 25
NA 09:00:00 MX 39.24 -91.32 25 25
NA 12:00:00 MX 39.97 -91.33 25 25 25
NA 15:00:00 ET 40.50 -91.14 25
NA 18:00:00 ET 41.00 -90.00 25
NA 21:00:00 ET 41.50 -88.79 25
NA 1898-09-23 00:00:00 ET 42.00 -87.50 25
NA 03:00:00 ET 42.50 -86.25 25
NA 06:00:00 ET 43.00 -85.00 25 1004
NA 09:00:00 ET 43.50 -83.75 30 1002
NA 12:00:00 ET 44.00 -82.50 35 1000

Source Information

Agency Information
USA hurdat2-1851-2018-051019.txt:Line=8972:UNNAMED
TOKYO
CMA
HKO
NEWDELHI
REUNION
BOM
NADI
WELLINGTON
DS824
TD9636
TD9635
NEUMANN
MLC

All available IBTrACS Data

SEASON BASIN SUBBASIN ISO_TIME_________ NATURE LAT LON WMO WIND WMO AGENCY DIST2LAND LANDFALL IFLAG USA AGENCY USA ATCF_ID USA LAT USA LON USA RECORD USA STATUS USA WIND USA SSHS MLC LAT MLC LON MLC CLASS MLC WIND MLC PRES STORM SPEED STORM DIR
Year degrees north degrees east kts km km degrees north degrees east kts 1 degrees north degrees east kts mb kts degrees
1898 NA CS 1898-09-12 06:00:00 TS 12.90 -79.10 50 hurdat_atl 380 380 O_____________ hurdat_atl AL051898 12.90 -79.10 TS 50 0 5 305
1898 NA CS 09:00:00 TS 13.05 -79.32 403 403 P_____________ AL051898 13.05 -79.32 TS 50 0 5 308
1898 NA CS 12:00:00 TS 13.20 -79.50 50 hurdat_atl 414 404 O_____________ hurdat_atl AL051898 13.20 -79.50 TS 50 0 4 316
1898 NA CS 15:00:00 TS 13.35 -79.62 404 388 P_____________ AL051898 13.35 -79.62 TS 50 0 4 327
1898 NA CS 18:00:00 TS 13.50 -79.70 50 hurdat_atl 388 375 O_____________ hurdat_atl AL051898 13.50 -79.70 TS 50 0 3 330
1898 NA CS 21:00:00 TS 13.65 -79.79 375 360 P_____________ AL051898 13.65 -79.79 TS 50 0 4 327
1898 NA CS 1898-09-13 00:00:00 TS 13.80 -79.90 50 hurdat_atl 360 348 O_____________ hurdat_atl AL051898 13.80 -79.90 TS 50 0 4 320
1898 NA CS 03:00:00 TS 13.95 -80.05 346 324 P_____________ AL051898 13.95 -80.05 TS 50 0 4 316
1898 NA CS 06:00:00 TS 14.10 -80.20 50 hurdat_atl 324 312 O_____________ hurdat_atl AL051898 14.10 -80.20 TS 50 0 4 321
1898 NA CS 09:00:00 TS 14.25 -80.30 312 298 P_____________ AL051898 14.25 -80.30 TS 50 0 4 327
1898 NA CS 12:00:00 TS 14.40 -80.40 50 hurdat_atl 298 285 O_____________ hurdat_atl AL051898 14.40 -80.40 TS 50 0 4 322
1898 NA CS 15:00:00 TS 14.56 -80.55 283 260 P_____________ AL051898 14.56 -80.55 TS 50 0 4 316
1898 NA CS 18:00:00 TS 14.70 -80.70 50 hurdat_atl 260 248 O_____________ hurdat_atl AL051898 14.70 -80.70 TS 50 0 3 315
1898 NA CS 21:00:00 TS 14.80 -80.80 248 236 P_____________ AL051898 14.80 -80.80 TS 50 0 3 316
1898 NA CS 1898-09-14 00:00:00 TS 14.90 -80.90 50 hurdat_atl 236 225 O_____________ hurdat_atl AL051898 14.90 -80.90 TS 50 0 3 317
1898 NA CS 03:00:00 TS 15.05 -81.04 225 205 P_____________ AL051898 15.05 -81.04 TS 50 0 4 316
1898 NA CS 06:00:00 TS 15.20 -81.20 50 hurdat_atl 205 194 O_____________ hurdat_atl AL051898 15.20 -81.20 TS 50 0 4 311
1898 NA CS 09:00:00 TS 15.31 -81.35 185 177 P_____________ AL051898 15.31 -81.35 TS 50 0 4 305
1898 NA CS 12:00:00 TS 15.40 -81.50 50 hurdat_atl 177 167 O_____________ hurdat_atl AL051898 15.40 -81.50 TS 50 0 3 303
1898 NA CS 15:00:00 TS 15.49 -81.65 160 154 P_____________ AL051898 15.49 -81.65 TS 50 0 4 305
1898 NA CS 18:00:00 TS 15.60 -81.80 50 hurdat_atl 154 150 O_____________ hurdat_atl AL051898 15.60 -81.80 TS 50 0 4 312
1898 NA CS 21:00:00 TS 15.75 -81.94 150 147 P_____________ AL051898 15.75 -81.94 TS 50 0 4 316
1898 NA CS 1898-09-15 00:00:00 TS 15.90 -82.10 50 hurdat_atl 147 139 O_____________ hurdat_atl AL051898 15.90 -82.10 TS 50 0 4 309
1898 NA CS 03:00:00 TS 16.01 -82.28 141 131 P_____________ AL051898 16.01 -82.28 TS 50 0 4 297
1898 NA CS 06:00:00 TS 16.10 -82.50 50 hurdat_atl 131 123 O_____________ hurdat_atl AL051898 16.10 -82.50 TS 50 0 5 292
1898 NA CS 09:00:00 TS 16.19 -82.76 119 114 P_____________ AL051898 16.19 -82.76 TS 50 0 6 289
1898 NA CS 12:00:00 TS 16.30 -83.10 50 hurdat_atl 116 104 O_____________ hurdat_atl AL051898 16.30 -83.10 TS 50 0 8 289
1898 NA CS 15:00:00 TS 16.44 -83.51 104 94 P_____________ AL051898 16.44 -83.51 TS 50 0 9 289
1898 NA CS 18:00:00 TS 16.60 -84.00 50 hurdat_atl 95 92 O_____________ hurdat_atl AL051898 16.60 -84.00 TS 50 0 10 288
1898 NA CS 21:00:00 TS 16.75 -84.53 92 92 P_____________ AL051898 16.75 -84.53 TS 50 0 11 286
1898 NA CS 1898-09-16 00:00:00 TS 16.90 -85.10 50 hurdat_atl 111 111 O_____________ hurdat_atl AL051898 16.90 -85.10 TS 50 0 12 285
1898 NA CS 03:00:00 TS 17.04 -85.69 123 123 P_____________ AL051898 17.04 -85.69 TS 50 0 12 285
1898 NA CS 06:00:00 TS 17.20 -86.30 50 hurdat_atl 151 130 O_____________ hurdat_atl AL051898 17.20 -86.30 TS 50 0 12 287
1898 NA CS 09:00:00 TS 17.39 -86.90 130 74 P_____________ AL051898 17.39 -86.90 TS 50 0 12 289
1898 NA CS 12:00:00 TS 17.60 -87.50 50 hurdat_atl 74 15 O_____________ hurdat_atl AL051898 17.60 -87.50 TS 50 0 12 289
1898 NA CS 15:00:00 TS 17.79 -88.09 15 0 P_____________ AL051898 17.79 -88.09 TS 45 0 12 289
1898 NA NA 18:00:00 TS 18.00 -88.70 40 hurdat_atl 0 0 O_____________ hurdat_atl AL051898 18.00 -88.70 TS 40 0 13 290
1898 NA NA 21:00:00 TS 18.23 -89.34 0 0 P_____________ AL051898 18.23 -89.34 TS 37 0 13 292
1898 NA NA 1898-09-17 00:00:00 TS 18.50 -90.00 35 hurdat_atl 0 0 O_____________ hurdat_atl AL051898 18.50 -90.00 TS 35 0 14 293
1898 NA NA 03:00:00 TS 18.78 -90.67 0 0 P_____________ AL051898 18.78 -90.67 TS 37 0 14 296
1898 NA GM 06:00:00 TS 19.10 -91.30 40 hurdat_atl 11 11 O_____________ hurdat_atl AL051898 19.10 -91.30 TS 40 0 14 301
1898 NA GM 09:00:00 TS 19.48 -91.89 79 79 P_____________ AL051898 19.48 -91.89 TS 40 0 13 308
1898 NA GM 12:00:00 TS 19.90 -92.40 40 hurdat_atl 145 145 O_____________ hurdat_atl AL051898 19.90 -92.40 TS 40 0 13 314
1898 NA GM 15:00:00 TS 20.34 -92.85 191 191 P_____________ AL051898 20.34 -92.85 TS 42 0 12 320
1898 NA GM 18:00:00 TS 20.80 -93.20 45 hurdat_atl 251 251 O_____________ hurdat_atl AL051898 20.80 -93.20 TS 45 0 11 329
1898 NA GM 21:00:00 TS 21.26 -93.45 310 310 P_____________ AL051898 21.26 -93.45 TS 45 0 10 338
1898 NA GM 1898-09-18 00:00:00 TS 21.70 -93.60 45 hurdat_atl 346 346 O_____________ hurdat_atl AL051898 21.70 -93.60 TS 45 0 9 343
1898 NA GM 03:00:00 TS 22.10 -93.72 368 367 P_____________ AL051898 22.10 -93.72 TS 47 0 8 347
1898 NA GM 06:00:00 TS 22.50 -93.80 50 hurdat_atl 374 374 O_____________ hurdat_atl AL051898 22.50 -93.80 TS 50 0 9 351
1898 NA GM 09:00:00 TS 22.94 -93.87 378 378 P_____________ AL051898 22.94 -93.87 TS 50 0 9 355
1898 NA GM 12:00:00 TS 23.40 -93.90 50 hurdat_atl 397 386 O_____________ hurdat_atl AL051898 23.40 -93.90 TS 50 0 9 358
1898 NA GM 15:00:00 TS 23.85 -93.91 386 362 P_____________ AL051898 23.85 -93.91 TS 50 0 9 0
1898 NA GM 18:00:00 TS 24.30 -93.90 50 hurdat_atl 362 346 O_____________ hurdat_atl AL051898 24.30 -93.90 TS 50 0 9 0
1898 NA GM 21:00:00 TS 24.76 -93.91 343 332 P_____________ AL051898 24.76 -93.91 TS 50 0 9 0
1898 NA GM 1898-09-19 00:00:00 TS 25.20 -93.92 50 hurdat_atl 332 323 O____________O hurdat_atl AL051898 25.20 -93.90 TS 50 0 25.20 -94.10 TS 35 9 0
1898 NA GM 03:00:00 TS 25.63 -93.91 323 319 P____________P AL051898 25.60 -93.86 TS 50 0 25.75 -94.10 TS 37 9 3
1898 NA GM 06:00:00 TS 26.08 -93.88 50 hurdat_atl 319 296 O____________O hurdat_atl AL051898 26.00 -93.80 TS 50 0 26.30 -94.10 TS 40 10 3
1898 NA GM 09:00:00 TS 26.58 -93.87 296 262 P____________P AL051898 26.45 -93.76 TS 50 0 26.85 -94.11 TS 42 10 3
1898 NA GM 12:00:00 TS 27.07 -93.83 50 hurdat_atl 252 216 O____________O hurdat_atl AL051898 26.90 -93.70 TS 50 0 27.40 -94.10 TS 45 10 7
1898 NA GM 15:00:00 TS 27.53 -93.76 216 191 P____________P AL051898 27.32 -93.61 TS 50 0 27.96 -94.06 TS 45 9 9
1898 NA GM 18:00:00 TS 27.97 -93.67 50 hurdat_atl 184 157 O____________O hurdat_atl AL051898 27.70 -93.50 TS 50 0 28.50 -94.00 TS 45 9 11
1898 NA GM 21:00:00 TS 28.37 -93.57 146 115 P____________P AL051898 28.06 -93.41 TS 50 0 29.00 -93.91 TS 45 8 13
1898 NA GM 1898-09-20 00:00:00 TS 28.77 -93.47 50 hurdat_atl 104 66 O____________O hurdat_atl AL051898 28.40 -93.30 TS 50 0 29.50 -93.80 TS 45 8 14
1898 NA GM 03:00:00 TS 29.19 -93.33 66 22 P____________P AL051898 28.76 -93.15 TS 50 0 30.05 -93.70 TS 42 9 16
1898 NA GM 06:00:00 TS 29.60 -93.20 50 hurdat_atl 22 0 O____________O hurdat_atl AL051898 29.10 -93.00 TS 50 0 30.60 -93.60 TS 40 8 18
1898 NA NA 09:00:00 TS 29.92 -93.07 0 0 P____________P AL051898 29.33 -92.85 TS 50 0 31.10 -93.50 TS 37 8 15
1898 NA NA 11:00:00 TS 30.21 -93.01 50 hurdat_atl 0 0 O____________P hurdat_atl AL051898 29.60 -92.80 L TS 50 0 31.43 -93.43 TS 35 10 7
1898 NA NA 12:00:00 TS 30.40 -93.00 45 hurdat_atl 0 0 O____________O hurdat_atl AL051898 29.80 -92.80 TS 45 0 31.60 -93.40 TS 35 10 9
1898 NA NA 15:00:00 TS 30.86 -92.89 0 0 P____________P AL051898 30.21 -92.68 TS 42 0 32.15 -93.30 TS 32 9 15
1898 NA NA 18:00:00 TS 31.23 -92.73 40 hurdat_atl 0 0 O____________O hurdat_atl AL051898 30.50 -92.50 TS 40 0 32.70 -93.20 TD 30 8 16
1898 NA NA 21:00:00 TS 31.67 -92.62 0 0 P____________P AL051898 30.90 -92.40 TS 37 0 33.20 -93.07 TD 30 9 11
1898 NA NA 1898-09-21 00:00:00 TS 32.10 -92.53 35 hurdat_atl 0 0 O____________O hurdat_atl AL051898 31.30 -92.30 TS 35 0 33.70 -93.00 TD 30 9 10
1898 NA NA 03:00:00 TS 32.52 -92.45 0 0 P____________P AL051898 31.66 -92.16 TS 35 0 34.24 -93.03 TD 30 8 8
1898 NA NA 06:00:00 TS 32.93 -92.40 35 hurdat_atl 0 0 O____________O hurdat_atl AL051898 32.00 -92.00 TS 35 0 34.80 -93.20 TD 30 8 0
1898 NA NA 09:00:00 TS 33.33 -92.45 0 0 P____________P AL051898 32.31 -91.86 TS 32 -1 35.35 -93.63 TD 30 8 356
1898 NA NA 12:00:00 TS 33.77 -92.47 30 hurdat_atl 0 0 O____________O hurdat_atl AL051898 32.70 -91.70 TD 30 -1 35.90 -94.00 TD 30 10 6
1898 NA NA 15:00:00 TS 34.29 -92.34 0 0 P____________P AL051898 33.21 -91.50 TD 30 -1 36.46 -94.01 TD 30 12 13
1898 NA NA 18:00:00 MX 34.93 -92.13 30 hurdat_atl 0 0 O____________O hurdat_atl AL051898 33.90 -91.30 TD 30 -1 37.00 -93.80 EX 30 14 13
1898 NA NA 21:00:00 MX 35.69 -91.95 0 0 P____________P AL051898 34.77 -91.16 TD 30 -1 37.51 -93.53 EX 30 16 11
1898 NA NA 1898-09-22 00:00:00 MX 36.53 -91.73 30 hurdat_atl 0 0 O____________O hurdat_atl AL051898 35.80 -91.00 TD 30 -1 38.00 -93.20 EX 30 18 12
1898 NA NA 03:00:00 MX 37.43 -91.48 0 0 P____________P AL051898 36.90 -90.77 TD 27 -1 38.50 -92.90 EX 27 19 9
1898 NA NA 06:00:00 MX 38.40 -91.34 25 hurdat_atl 0 0 O____________O hurdat_atl AL051898 38.00 -90.50 TD 25 -1 39.00 -92.60 EX 25 18 4
1898 NA NA 09:00:00 MX 39.24 -91.32 0 0 P____________P AL051898 38.99 -90.25 TD 25 -1 39.50 -92.40 EX 25 16 0
1898 NA NA 12:00:00 MX 39.97 -91.33 25 hurdat_atl 0 0 O____________O hurdat_atl AL051898 39.90 -90.00 TD 25 -1 40.00 -92.00 EX 25 13 6
1898 NA NA 15:00:00 ET 40.50 -91.14 0 0 _____________P AL051898 TD -1 40.50 -91.14 EX 25 14 44
1898 NA NA 18:00:00 ET 41.00 -90.00 0 0 _____________O 41.00 -90.00 EX 25 20 61
1898 NA NA 21:00:00 ET 41.50 -88.79 0 0 _____________P 41.50 -88.79 EX 25 21 62
1898 NA NA 1898-09-23 00:00:00 ET 42.00 -87.50 0 0 _____________O 42.00 -87.50 EX 25 21 62
1898 NA NA 03:00:00 ET 42.50 -86.25 0 0 _____________P 42.50 -86.25 EX 25 21 62
1898 NA NA 06:00:00 ET 43.00 -85.00 0 0 _____________O 43.00 -85.00 EX 25 1004 21 61
1898 NA NA 09:00:00 ET 43.50 -83.75 0 0 _____________P 43.50 -83.75 EX 30 1002 21 61
1898 NA NA 12:00:00 ET 44.00 -82.50 0 _____________O 44.00 -82.50 EX 35 1000 21 61